Time;durP1;ratioP1;P1;durP2;ratioP2;P2;SDS_P1;SDS_P2;PMS_P1;PMS_P2;Temp;Humidity;BMP_temperature;BMP_pressure;BME280_temperature;BME280_humidity;BME280_pressure;Samples;Min_cycle;Max_cycle;Signal;HPM_P1;HPM_P2
2022/07/10 00:00:13;;;;;;;9.07;2.28;;;;;;;12.38;95.99;101948.63;4991198;28;20252;-49
2022/07/10 00:02:40;;;;;;;9.23;2.40;;;;;;;12.32;96.07;101950.53;4991422;28;20281;-49
2022/07/10 00:05:06;;;;;;;7.15;2.30;;;;;;;12.44;96.09;101957.41;4992902;28;20626;-46
2022/07/10 00:07:32;;;;;;;8.82;2.20;;;;;;;12.35;95.91;101953.16;4994810;28;20348;-48
2022/07/10 00:09:58;;;;;;;11.70;2.13;;;;;;;12.22;95.56;101954.38;4995174;28;20248;-48
2022/07/10 00:12:23;;;;;;;7.15;2.15;;;;;;;12.22;96.00;101957.06;4977946;28;20236;-48
2022/07/10 00:14:49;;;;;;;12.00;2.03;;;;;;;12.14;96.73;101957.28;4994549;28;20178;-49
2022/07/10 00:17:14;;;;;;;7.32;2.10;;;;;;;12.20;96.95;101952.66;4994697;28;20189;-48
2022/07/10 00:19:40;;;;;;;7.57;1.73;;;;;;;12.32;96.98;101938.91;4989136;28;20231;-49
2022/07/10 00:22:05;;;;;;;8.32;2.65;;;;;;;12.13;97.30;101939.44;4979330;28;20190;-50
2022/07/10 00:24:31;;;;;;;9.90;2.10;;;;;;;12.13;97.61;101943.91;4974783;28;20334;-49
2022/07/10 00:26:57;;;;;;;9.43;2.50;;;;;;;12.12;97.21;101942.16;4975093;28;20634;-46
2022/07/10 00:29:23;;;;;;;6.63;1.73;;;;;;;12.13;97.03;101936.75;4974820;28;20575;-47
2022/07/10 00:31:48;;;;;;;8.82;1.98;;;;;;;11.82;97.91;101933.94;4975156;28;20186;-48
2022/07/10 00:34:14;;;;;;;12.30;2.63;;;;;;;11.79;98.45;101939.38;4974862;28;20596;-47
2022/07/10 00:36:39;;;;;;;10.25;2.42;;;;;;;11.87;98.90;101939.16;4957628;28;20209;-46
2022/07/10 00:39:05;;;;;;;8.68;2.17;;;;;;;11.82;99.02;101933.94;4974938;28;20210;-45
2022/07/10 00:41:30;;;;;;;9.98;2.10;;;;;;;11.90;99.09;101944.53;4974949;28;20267;-46
2022/07/10 00:44:01;;;;;;;13.10;2.75;;;;;;;11.83;99.04;101940.16;4957284;28;20174;-47
2022/07/10 00:46:28;;;;;;;8.25;2.42;;;;;;;11.87;99.37;101940.09;4973472;28;20234;-48
2022/07/10 00:48:54;;;;;;;11.50;2.67;;;;;;;11.94;99.17;101935.47;4974828;28;20202;-45
2022/07/10 00:51:22;;;;;;;8.10;2.42;;;;;;;12.01;98.93;101930.81;4974520;28;20550;-47
2022/07/10 00:53:50;;;;;;;10.25;2.35;;;;;;;11.88;99.16;101931.13;4990203;28;20181;-48
2022/07/10 00:56:19;;;;;;;12.95;2.22;;;;;;;11.85;99.26;101933.88;4993878;28;20205;-46
2022/07/10 00:58:49;;;;;;;8.15;2.30;;;;;;;11.82;99.25;101925.88;4994090;28;20205;-48
2022/07/10 01:01:15;;;;;;;10.65;2.28;;;;;;;11.84;99.47;101934.78;4993347;28;20177;-47
2022/07/10 01:03:40;;;;;;;15.45;2.47;;;;;;;11.86;99.73;101934.75;4993749;28;20161;-49
2022/07/10 01:06:06;;;;;;;12.15;3.13;;;;;;;11.96;99.67;101928.25;4993885;28;20675;-49
2022/07/10 01:08:33;;;;;;;12.38;2.65;;;;;;;11.92;99.12;101929.25;4993974;28;20464;-47
2022/07/10 01:10:59;;;;;;;13.18;2.80;;;;;;;11.94;99.08;101930.97;4993785;28;20181;-47
2022/07/10 01:13:24;;;;;;;11.45;2.60;;;;;;;12.07;98.80;101931.53;4993272;28;20197;-45
2022/07/10 01:15:51;;;;;;;12.20;3.00;;;;;;;12.04;98.33;101928.03;4993410;28;20249;-49
2022/07/10 01:18:16;;;;;;;11.10;3.05;;;;;;;12.10;98.08;101933.25;4993042;28;20240;-48
2022/07/10 01:20:42;;;;;;;14.07;2.72;;;;;;;12.14;97.50;101926.88;4993735;28;20693;-47
2022/07/10 01:23:07;;;;;;;14.57;2.90;;;;;;;12.01;97.24;101920.06;4993251;28;20645;-46
2022/07/10 01:25:33;;;;;;;12.32;2.92;;;;;;;12.10;96.98;101930.56;4993465;28;20605;-47
2022/07/10 01:27:58;;;;;;;13.98;2.80;;;;;;;12.07;96.56;101931.53;4993190;28;20688;-48
2022/07/10 01:30:25;;;;;;;14.63;2.70;;;;;;;12.08;96.51;101924.34;4993582;28;20687;-48
2022/07/10 01:32:52;;;;;;;9.18;2.45;;;;;;;12.08;96.07;101924.34;5008422;28;20170;-47
2022/07/10 01:35:17;;;;;;;11.73;2.58;;;;;;;12.08;95.81;101929.72;4992970;28;20200;-47
2022/07/10 01:37:43;;;;;;;9.80;2.72;;;;;;;12.18;95.76;101928.56;4993287;28;20280;-48
2022/07/10 01:40:09;;;;;;;10.23;2.22;;;;;;;12.18;95.98;101920.50;4993404;28;20590;-46
2022/07/10 01:42:35;;;;;;;17.50;3.33;;;;;;;12.13;95.67;101922.41;4993205;28;20189;-47
2022/07/10 01:45:00;;;;;;;12.82;2.92;;;;;;;12.07;95.49;101926.16;4992518;28;20309;-46
2022/07/10 01:47:27;;;;;;;12.45;2.58;;;;;;;12.26;95.51;101931.00;4989107;28;20216;-47
2022/07/10 01:49:53;;;;;;;17.33;2.88;;;;;;;12.31;94.93;101921.91;4993080;28;20187;-47
2022/07/10 01:52:20;;;;;;;12.57;2.63;;;;;;;12.27;94.91;101919.34;4993173;28;20174;-46
2022/07/10 01:54:46;;;;;;;13.60;2.92;;;;;;;12.25;95.07;101932.81;4993033;28;20186;-45
2022/07/10 01:57:12;;;;;;;9.95;2.55;;;;;;;12.29;95.07;101922.88;4986938;28;20205;-49
2022/07/10 01:59:37;;;;;;;11.38;3.03;;;;;;;12.16;94.84;101925.91;4989296;28;20166;-48
2022/07/10 02:02:03;;;;;;;15.52;2.97;;;;;;;12.28;94.88;101921.97;4992998;28;20185;-45
2022/07/10 02:04:40;;;;;;;11.68;2.30;;;;;;;12.23;94.64;101917.69;4992441;28;20182;-49
2022/07/10 02:07:10;;;;;;;16.73;2.90;;;;;;;12.15;94.89;101923.25;4993099;28;20538;-47
2022/07/10 02:09:36;;;;;;;13.13;2.70;;;;;;;12.07;95.07;101918.09;4992492;28;20248;-47
2022/07/10 02:12:02;;;;;;;14.60;2.72;;;;;;;12.17;95.42;101907.97;4991883;28;20181;-48
2022/07/10 02:14:27;;;;;;;11.57;2.67;;;;;;;12.26;95.19;101907.69;4992275;28;20233;-46
2022/07/10 02:16:53;;;;;;;12.02;2.72;;;;;;;12.15;95.42;101910.69;4992492;28;20657;-46
2022/07/10 02:19:18;;;;;;;16.67;2.58;;;;;;;12.14;95.26;101900.00;4992159;28;20208;-47
2022/07/10 02:21:45;;;;;;;14.10;3.10;;;;;;;12.13;95.01;101907.19;4992295;28;20192;-47
2022/07/10 02:24:11;;;;;;;12.95;2.80;;;;;;;12.05;95.70;101897.56;4991666;28;20189;-47
2022/07/10 02:26:36;;;;;;;20.05;2.83;;;;;;;12.08;96.10;101903.72;4992374;28;20368;-48
2022/07/10 02:29:02;;;;;;;13.93;3.20;;;;;;;12.07;96.09;101906.44;4991456;28;20236;-48
2022/07/10 02:31:27;;;;;;;13.07;3.47;;;;;;;12.11;96.24;101898.28;4992158;28;20208;-46
2022/07/10 02:33:53;;;;;;;13.13;3.10;;;;;;;12.12;96.69;101901.84;4991885;28;20196;-48
2022/07/10 02:36:18;;;;;;;14.13;3.17;;;;;;;12.06;96.36;101912.75;4992371;28;20664;-48
2022/07/10 02:38:44;;;;;;;15.60;3.10;;;;;;;12.09;96.75;101905.50;4992427;28;20614;-48
2022/07/10 02:41:09;;;;;;;12.45;2.80;;;;;;;12.12;96.12;101908.09;4991987;28;20173;-48
2022/07/10 02:43:35;;;;;;;11.95;3.22;;;;;;;12.16;95.77;101912.47;4991989;28;20241;-48
2022/07/10 02:46:01;;;;;;;18.05;2.95;;;;;;;12.13;95.64;101911.66;4992142;28;20165;-48
2022/07/10 02:48:27;;;;;;;10.18;3.05;;;;;;;12.27;95.20;101906.78;4992204;28;20197;-47
2022/07/10 02:50:53;;;;;;;12.00;2.88;;;;;;;12.15;94.61;101913.38;4992009;28;20188;-49
2022/07/10 02:53:18;;;;;;;9.88;2.92;;;;;;;12.16;93.58;101908.91;4991243;28;20264;-49
2022/07/10 02:55:44;;;;;;;10.07;2.70;;;;;;;12.14;93.82;101905.38;4991925;28;20189;-45
2022/07/10 02:58:09;;;;;;;16.55;2.88;;;;;;;12.09;93.65;101897.44;4991233;28;20205;-47
2022/07/10 03:00:36;;;;;;;16.92;2.78;;;;;;;12.08;94.01;101897.47;4991501;28;20196;-45
2022/07/10 03:03:01;;;;;;;14.98;3.30;;;;;;;12.14;93.68;101898.19;4991143;28;20630;-46
2022/07/10 03:05:27;;;;;;;16.98;2.92;;;;;;;12.12;93.16;101908.09;4991495;28;20176;-45
2022/07/10 03:07:53;;;;;;;11.55;2.53;;;;;;;12.21;92.65;101900.72;4991337;28;20194;-46
2022/07/10 03:10:18;;;;;;;11.45;2.72;;;;;;;12.12;91.73;101907.22;4974123;28;20688;-48
2022/07/10 03:12:44;;;;;;;16.05;3.42;;;;;;;12.19;91.95;101899.88;4991672;28;20178;-47
2022/07/10 03:15:10;;;;;;;16.52;3.00;;;;;;;12.22;91.72;101900.66;4990782;28;20670;-48
2022/07/10 03:17:36;;;;;;;16.60;3.63;;;;;;;12.15;92.15;101894.56;4991048;28;20205;-48
2022/07/10 03:20:01;;;;;;;17.60;3.65;;;;;;;12.15;91.92;101905.31;4991198;28;20174;-46
2022/07/10 03:22:28;;;;;;;16.67;3.22;;;;;;;12.22;91.93;101897.97;4991335;28;20177;-47
2022/07/10 03:24:54;;;;;;;12.63;2.85;;;;;;;12.18;91.51;101899.00;4990570;28;20586;-46
2022/07/10 03:27:19;;;;;;;15.82;3.58;;;;;;;12.11;91.70;101900.97;4991226;28;20252;-49
2022/07/10 03:29:46;;;;;;;19.42;3.47;;;;;;;12.23;91.60;101897.06;4991141;28;20266;-46
2022/07/10 03:32:11;;;;;;;13.02;3.35;;;;;;;12.25;91.07;101895.22;4991059;28;20210;-47
2022/07/10 03:34:37;;;;;;;11.18;2.83;;;;;;;12.20;91.32;101891.78;4990619;28;20558;-45
2022/07/10 03:37:03;;;;;;;16.35;3.30;;;;;;;12.03;91.53;101902.09;4991157;28;20192;-45
2022/07/10 03:39:28;;;;;;;18.77;3.50;;;;;;;12.01;91.83;101898.59;4992429;28;20284;-46
2022/07/10 03:41:54;;;;;;;21.98;3.83;;;;;;;12.05;92.25;101909.19;4997735;28;20200;-48
2022/07/10 03:44:19;;;;;;;14.85;2.90;;;;;;;12.11;91.60;101911.72;4997110;28;20526;-46
2022/07/10 03:46:45;;;;;;;22.02;3.20;;;;;;;11.97;91.74;101900.47;4995911;28;20185;-47
2022/07/10 03:49:11;;;;;;;18.42;3.30;;;;;;;12.02;91.17;101892.28;4989073;28;20205;-48
2022/07/10 03:51:36;;;;;;;14.00;3.28;;;;;;;12.13;90.42;101906.28;4980075;28;20169;-47
2022/07/10 03:54:02;;;;;;;14.27;3.65;;;;;;;11.97;89.59;101891.53;4997512;28;20264;-49
2022/07/10 03:59:11;;;;;;;13.40;3.08;;;;;;;11.88;89.97;101892.66;4997827;28;20201;-46
2022/07/10 04:01:37;;;;;;;18.30;2.40;;;;;;;11.83;89.12;101886.47;4979992;28;20177;-46
2022/07/10 04:04:03;;;;;;;12.80;2.70;;;;;;;11.89;88.38;101892.59;4996511;28;20206;-49
2022/07/10 04:06:28;;;;;;;13.93;2.58;;;;;;;11.88;88.62;101892.66;4982263;28;20194;-49
2022/07/10 04:08:54;;;;;;;12.70;2.80;;;;;;;11.90;87.80;101882.75;4978282;28;20276;-47
2022/07/10 04:11:19;;;;;;;16.08;2.65;;;;;;;11.91;87.51;101884.50;4960803;28;20177;-48
2022/07/10 04:13:45;;;;;;;16.73;2.83;;;;;;;11.98;87.24;101891.47;4977915;28;20685;-48
2022/07/10 04:16:12;;;;;;;12.15;2.53;;;;;;;12.05;86.22;101876.09;4978429;28;20611;-47
2022/07/10 04:18:41;;;;;;;16.52;2.83;;;;;;;11.88;86.15;101882.78;4977840;28;20707;-49
2022/07/10 04:21:07;;;;;;;15.13;2.17;;;;;;;11.90;86.42;101880.94;4978303;28;20558;-48
2022/07/10 04:23:33;;;;;;;13.02;3.05;;;;;;;12.00;86.83;101884.25;4977776;28;20166;-47
2022/07/10 04:25:59;;;;;;;9.13;2.13;;;;;;;11.97;87.14;101886.16;4978205;28;20645;-48
2022/07/10 04:28:24;;;;;;;14.55;2.45;;;;;;;11.95;86.56;101889.75;4977834;28;20206;-48
2022/07/10 04:30:50;;;;;;;14.40;2.33;;;;;;;12.05;86.91;101887.72;4978286;28;20646;-47
2022/07/10 04:33:15;;;;;;;12.00;2.33;;;;;;;12.02;86.27;101882.41;4977785;28;20439;-48
2022/07/10 04:35:41;;;;;;;12.02;2.67;;;;;;;11.96;86.29;101877.22;4977858;28;20221;-47
2022/07/10 04:38:06;;;;;;;16.00;2.65;;;;;;;11.87;86.49;101881.00;4960698;28;20574;-46
2022/07/10 04:40:32;;;;;;;8.65;2.03;;;;;;;11.95;87.08;101881.69;4977741;28;20189;-49
2022/07/10 04:42:57;;;;;;;12.25;2.30;;;;;;;11.99;86.69;101874.44;4977772;28;20162;-49
2022/07/10 04:45:23;;;;;;;11.02;2.33;;;;;;;12.08;86.45;101879.56;4977544;28;20262;-48
2022/07/10 04:47:48;;;;;;;14.70;2.83;;;;;;;12.20;86.09;101886.41;4977925;28;20260;-47
2022/07/10 04:50:14;;;;;;;11.02;2.03;;;;;;;12.07;85.35;101883.19;4977788;28;20170;-46
2022/07/10 04:52:39;;;;;;;14.38;2.45;;;;;;;12.18;84.69;101885.56;4980833;28;20189;-45
2022/07/10 04:55:05;;;;;;;11.80;2.33;;;;;;;12.14;85.70;101883.88;4993975;28;20184;-47
2022/07/10 04:57:31;;;;;;;14.55;3.03;;;;;;;12.25;84.79;101883.59;4994038;28;20329;-47
2022/07/10 04:59:56;;;;;;;16.38;2.30;;;;;;;12.25;85.16;101878.22;4976512;28;20248;-47
2022/07/10 05:02:22;;;;;;;11.05;2.38;;;;;;;12.31;85.16;101878.00;4994026;28;20177;-47
2022/07/10 05:04:48;;;;;;;10.30;2.65;;;;;;;12.23;85.24;101872.88;4993931;28;20172;-45
2022/07/10 05:07:14;;;;;;;16.33;2.45;;;;;;;12.20;85.14;101883.72;4993733;28;20716;-47
2022/07/10 05:09:40;;;;;;;13.02;2.33;;;;;;;12.27;85.26;101884.44;4994137;28;20172;-45
2022/07/10 05:12:06;;;;;;;13.02;2.45;;;;;;;12.46;84.96;101882.06;4993713;28;20536;-44
2022/07/10 05:14:32;;;;;;;14.95;2.50;;;;;;;12.51;84.80;101888.22;4993669;28;20165;-44
2022/07/10 05:16:57;;;;;;;7.50;2.17;;;;;;;12.61;84.60;101880.75;4993523;28;20474;-47
2022/07/10 05:19:23;;;;;;;13.90;2.55;;;;;;;12.54;84.70;101880.03;4994005;28;20257;-45
2022/07/10 05:21:48;;;;;;;11.43;3.40;;;;;;;12.55;85.25;101884.47;4993455;28;20162;-46
2022/07/10 05:24:14;;;;;;;12.57;2.40;;;;;;;12.55;85.02;101882.69;4993457;28;20185;-46
2022/07/10 05:26:39;;;;;;;16.25;3.00;;;;;;;12.63;85.24;101884.28;4993380;28;20170;-45
2022/07/10 05:29:05;;;;;;;10.40;2.65;;;;;;;12.55;84.69;101881.78;4993335;28;20236;-44
2022/07/10 05:31:30;;;;;;;13.88;2.42;;;;;;;12.55;84.16;101880.00;4993675;28;20174;-43
2022/07/10 05:33:56;;;;;;;11.65;2.10;;;;;;;12.66;84.33;101881.47;4993088;28;20169;-45
2022/07/10 05:36:21;;;;;;;12.38;2.40;;;;;;;12.69;84.18;101884.09;4993469;28;20608;-46
2022/07/10 05:38:47;;;;;;;14.45;2.47;;;;;;;12.76;84.52;101885.66;4993060;28;20197;-44
2022/07/10 05:41:12;;;;;;;13.82;2.40;;;;;;;12.67;84.25;101876.06;4993181;28;20166;-47
2022/07/10 05:43:38;;;;;;;14.45;2.13;;;;;;;12.58;84.15;101881.72;4992961;28;20652;-46
2022/07/10 05:46:04;;;;;;;11.70;2.50;;;;;;;12.61;83.30;101868.16;4993346;28;20170;-45
2022/07/10 05:48:29;;;;;;;10.25;1.95;;;;;;;12.81;83.66;101883.69;4992982;28;20245;-44
2022/07/10 05:50:55;;;;;;;11.68;2.45;;;;;;;12.78;83.19;101882.00;4993553;28;20166;-45
2022/07/10 05:53:20;;;;;;;11.93;1.95;;;;;;;12.72;83.79;101882.16;4992692;28;20205;-46
2022/07/10 05:55:47;;;;;;;11.43;2.30;;;;;;;12.76;84.08;101894.59;4993083;28;20189;-46
2022/07/10 05:58:13;;;;;;;14.18;3.05;;;;;;;12.83;83.71;101889.03;4992855;28;20201;-46
2022/07/10 06:00:38;;;;;;;8.75;2.03;;;;;;;12.85;83.16;101898.81;4992653;28;20165;-45
2022/07/10 06:03:04;;;;;;;12.23;2.42;;;;;;;12.91;83.54;101890.56;4992632;28;20596;-47
2022/07/10 06:05:29;;;;;;;10.43;1.90;;;;;;;12.87;82.71;101893.41;4992628;28;20178;-43
2022/07/10 06:07:55;;;;;;;15.95;2.47;;;;;;;12.85;83.00;101892.56;4992628;28;20201;-45
2022/07/10 06:10:20;;;;;;;13.15;2.15;;;;;;;13.01;82.41;101901.03;4992472;28;20169;-45
2022/07/10 06:12:46;;;;;;;10.00;2.33;;;;;;;12.90;82.02;101891.50;4992742;28;20225;-45
2022/07/10 06:15:12;;;;;;;13.00;1.98;;;;;;;12.91;81.85;101893.25;4992484;28;20483;-46
2022/07/10 06:17:37;;;;;;;14.30;2.35;;;;;;;13.14;81.69;101887.16;4992563;28;20213;-45
2022/07/10 06:20:03;;;;;;;11.10;2.53;;;;;;;13.17;81.91;101905.03;4992464;28;20689;-45
2022/07/10 06:22:31;;;;;;;15.07;2.30;;;;;;;13.23;81.96;101893.16;4992462;28;20161;-42
2022/07/10 06:25:03;;;;;;;9.38;1.70;;;;;;;13.39;82.06;101881.00;4992223;28;20696;-45
2022/07/10 06:27:28;;;;;;;12.30;2.15;;;;;;;13.34;81.53;101885.69;4992299;28;20177;-46
2022/07/10 06:29:54;;;;;;;10.93;2.05;;;;;;;13.33;80.63;101883.91;4992476;28;20625;-46
2022/07/10 06:32:19;;;;;;;11.52;2.28;;;;;;;13.51;81.03;101888.69;4992012;28;20180;-45
2022/07/10 06:34:44;;;;;;;11.25;2.05;;;;;;;13.41;80.34;101887.22;4992269;28;20168;-45
2022/07/10 06:37:10;;;;;;;9.30;2.08;;;;;;;13.39;80.87;101884.56;4974691;28;20507;-47
2022/07/10 06:39:36;;;;;;;14.88;2.13;;;;;;;13.54;81.03;101890.41;4992246;28;20225;-48
2022/07/10 06:42:05;;;;;;;14.48;2.30;;;;;;;13.54;81.05;101890.41;4991617;28;20295;-47
2022/07/10 06:44:37;;;;;;;9.80;2.75;;;;;;;13.37;80.71;101897.19;4991932;28;20628;-49
2022/07/10 06:49:48;;;;;;;9.43;1.80;;;;;;;13.54;80.73;101898.47;4991883;28;20177;-48
2022/07/10 06:52:14;;;;;;;8.57;2.03;;;;;;;13.67;80.46;101899.81;4991580;28;20181;-50
2022/07/10 06:54:39;;;;;;;10.13;1.88;;;;;;;13.62;79.26;101895.50;4991676;28;20587;-48
2022/07/10 06:57:06;;;;;;;13.02;2.08;;;;;;;13.67;78.54;101896.25;4991544;28;20193;-47
2022/07/10 06:59:31;;;;;;;8.30;1.83;;;;;;;13.57;78.04;101892.97;4991659;28;20201;-47
2022/07/10 07:01:56;;;;;;;8.48;1.73;;;;;;;13.65;76.58;101882.81;4991950;28;20498;-47
2022/07/10 07:04:22;;;;;;;6.28;1.65;;;;;;;13.64;76.89;101888.25;4991115;28;20237;-48
2022/07/10 07:06:47;;;;;;;9.57;1.45;;;;;;;13.76;74.80;101887.84;4991627;28;20187;-48
2022/07/10 07:09:13;;;;;;;7.90;1.67;;;;;;;13.74;74.62;101893.28;4991201;28;20189;-48
2022/07/10 07:11:38;;;;;;;5.25;1.55;;;;;;;13.83;73.11;101889.38;4991924;28;20165;-48
2022/07/10 07:14:04;;;;;;;5.30;1.40;;;;;;;14.10;73.81;101878.56;4990434;28;20161;-47
2022/07/10 07:16:57;;;;;;;10.40;1.60;;;;;;;14.20;71.74;101882.69;4973977;28;20688;-48
2022/07/10 07:19:18;;;;;;;7.05;1.55;;;;;;;14.18;71.59;101889.94;4990288;28;20216;-47
2022/07/10 07:24:28;;;;;;;5.00;1.52;;;;;;;15.02;69.35;101880.47;4990623;28;20610;-47
2022/07/10 07:26:54;;;;;;;4.65;1.35;;;;;;;14.91;68.88;101878.22;4991597;28;20165;-49
2022/07/10 07:29:19;;;;;;;8.02;1.60;;;;;;;15.32;69.61;101885.59;4991221;28;20189;-48
2022/07/10 07:31:45;;;;;;;5.65;1.50;;;;;;;14.87;70.82;101894.56;4991226;28;20644;-48
2022/07/10 07:34:11;;;;;;;8.82;1.40;;;;;;;14.90;71.09;101889.06;4990966;28;20192;-52
2022/07/10 07:36:36;;;;;;;10.60;2.00;;;;;;;15.45;70.42;101889.53;4991241;28;20204;-47
2022/07/10 07:39:02;;;;;;;5.57;1.67;;;;;;;15.51;70.24;101889.28;4973692;28;20201;-47
2022/07/10 07:41:28;;;;;;;5.90;1.60;;;;;;;15.24;70.27;101892.19;4990807;28;20640;-48
2022/07/10 07:43:53;;;;;;;8.50;1.40;;;;;;;15.45;69.99;101886.81;4990859;28;20178;-48
2022/07/10 07:46:19;;;;;;;10.48;1.63;;;;;;;15.40;69.21;101878.91;4990970;28;20176;-48
2022/07/10 07:48:45;;;;;;;10.52;2.00;;;;;;;15.39;68.42;101879.88;4990901;28;20208;-48
2022/07/10 07:51:11;;;;;;;3.00;1.02;;;;;;;15.31;68.68;101871.22;4990959;28;20182;-48
2022/07/10 07:53:36;;;;;;;8.60;1.73;;;;;;;15.25;68.11;101876.84;4990814;28;20174;-52
2022/07/10 07:56:02;;;;;;;6.45;1.70;;;;;;;15.06;68.65;101874.00;4990683;28;20197;-48
2022/07/10 07:58:27;;;;;;;7.90;1.83;;;;;;;15.68;68.89;101863.34;4991060;28;20288;-47
2022/07/10 08:00:53;;;;;;;5.50;1.33;;;;;;;16.38;67.78;101873.78;4973490;28;20169;-47
2022/07/10 08:03:18;;;;;;;8.65;1.63;;;;;;;16.00;67.03;101876.38;4990195;28;20762;-48
2022/07/10 08:05:44;;;;;;;10.88;2.10;;;;;;;15.86;67.96;101873.41;4990972;28;20173;-47
2022/07/10 08:08:09;;;;;;;8.20;1.73;;;;;;;15.58;67.72;101869.16;4991044;28;20197;-49
2022/07/10 08:10:36;;;;;;;7.95;1.70;;;;;;;15.92;66.96;101872.25;4990936;28;20211;-48
2022/07/10 08:13:03;;;;;;;6.90;1.65;;;;;;;15.94;66.76;101865.84;4990794;28;20181;-46
2022/07/10 08:15:29;;;;;;;8.13;1.95;;;;;;;16.88;66.22;101867.84;4990859;28;20656;-48
2022/07/10 08:17:57;;;;;;;8.70;2.10;;;;;;;16.38;64.67;101867.50;4990688;28;20208;-47
2022/07/10 08:20:25;;;;;;;7.65;1.77;;;;;;;15.75;67.22;101854.09;4990945;28;20170;-46
2022/07/10 08:22:52;;;;;;;9.80;2.00;;;;;;;15.52;67.58;101852.34;4973403;28;20653;-49
2022/07/10 08:25:18;;;;;;;9.25;2.00;;;;;;;15.81;66.99;101860.09;4990839;28;20197;-48
2022/07/10 08:27:44;;;;;;;11.07;2.25;;;;;;;15.56;67.31;101860.25;4992973;28;20685;-48
2022/07/10 08:30:10;;;;;;;6.22;1.73;;;;;;;15.64;66.34;101851.81;4994601;28;20188;-49
2022/07/10 08:32:39;;;;;;;6.90;1.92;;;;;;;15.91;65.45;101849.75;4994584;28;20178;-49
2022/07/10 08:35:06;;;;;;;7.43;1.65;;;;;;;16.29;65.32;101849.88;4993897;28;20200;-51
2022/07/10 08:37:42;;;;;;;6.13;1.70;;;;;;;15.87;65.61;101848.13;4994279;28;20244;-49
2022/07/10 08:40:09;;;;;;;8.13;1.73;;;;;;;16.38;65.16;101845.88;4994583;28;20192;-48
2022/07/10 08:42:35;;;;;;;6.20;1.77;;;;;;;16.65;63.72;101832.84;4994152;28;20177;-49
2022/07/10 08:45:01;;;;;;;8.07;2.10;;;;;;;17.18;62.52;101823.09;4976077;28;20186;-49
2022/07/10 08:47:30;;;;;;;5.78;1.67;;;;;;;17.48;60.34;101826.09;4994243;28;20161;-49
2022/07/10 08:49:57;;;;;;;7.72;1.65;;;;;;;18.37;60.13;101824.09;4993921;28;20224;-48
2022/07/10 08:52:31;;;;;;;9.05;1.90;;;;;;;18.19;58.92;101830.53;4994262;28;20174;-47
2022/07/10 08:54:58;;;;;;;9.63;2.33;;;;;;;17.16;59.99;101831.28;4993652;28;20594;-48
2022/07/10 08:57:24;;;;;;;7.30;2.00;;;;;;;17.57;60.47;101830.16;4993495;28;20201;-50
2022/07/10 08:59:50;;;;;;;8.75;1.80;;;;;;;17.39;59.52;101827.44;5008966;28;20192;-49
2022/07/10 09:02:16;;;;;;;5.95;1.67;;;;;;;17.83;57.87;101831.53;4994088;28;20181;-49
2022/07/10 09:04:41;;;;;;;5.60;1.58;;;;;;;18.30;57.90;101830.81;4976442;28;20313;-49
2022/07/10 09:07:07;;;;;;;7.80;2.25;;;;;;;17.73;59.70;101828.38;4993718;28;20177;-48
2022/07/10 09:09:51;;;;;;;8.00;1.95;;;;;;;17.38;60.15;101843.75;4993664;28;20296;-49
2022/07/10 09:12:16;;;;;;;7.93;1.95;;;;;;;16.65;60.83;101840.97;4980262;28;20190;-51
2022/07/10 09:14:42;;;;;;;12.95;2.05;;;;;;;16.17;64.43;101851.28;4990387;28;20672;-49
2022/07/10 09:17:07;;;;;;;9.07;2.00;;;;;;;16.20;64.15;101853.88;4993550;28;20240;-48
2022/07/10 09:19:34;;;;;;;9.70;2.10;;;;;;;16.81;62.08;101843.84;4993682;28;20201;-48
2022/07/10 09:22:09;;;;;;;8.20;1.77;;;;;;;16.98;61.72;101827.66;4993294;28;20177;-49
2022/07/10 09:24:40;;;;;;;7.82;2.42;;;;;;;17.54;60.75;101819.50;4993282;28;20247;-49
2022/07/10 09:27:06;;;;;;;9.45;1.63;;;;;;;17.49;59.86;101825.13;4993843;28;20170;-50
2022/07/10 09:29:48;;;;;;;7.47;2.13;;;;;;;16.83;60.97;101832.00;4993537;28;20244;-50
2022/07/10 09:32:16;;;;;;;5.95;1.77;;;;;;;17.09;61.07;101822.59;4993370;28;20196;-49
2022/07/10 09:34:42;;;;;;;7.20;1.90;;;;;;;18.02;58.21;101821.47;4994874;28;20195;-49
2022/07/10 09:37:24;;;;;;;7.07;1.70;;;;;;;17.51;58.52;101815.09;5011946;28;20204;-49
2022/07/10 09:39:59;;;;;;;7.05;1.63;;;;;;;17.63;59.68;101843.41;5012979;28;20213;-48
2022/07/10 09:42:24;;;;;;;8.05;1.95;;;;;;;17.14;58.82;101832.31;5012850;28;20275;-48
2022/07/10 09:44:50;;;;;;;9.35;1.67;;;;;;;16.74;60.08;101842.38;5012097;28;20255;-48
2022/07/10 09:47:22;;;;;;;7.28;1.30;;;;;;;16.81;60.38;101835.72;5012458;28;20456;-49
2022/07/10 09:49:48;;;;;;;9.95;2.10;;;;;;;16.74;60.53;101843.22;4995060;28;20185;-50
2022/07/10 09:52:15;;;;;;;6.03;1.50;;;;;;;16.76;60.90;101837.75;5005576;28;20182;-50
2022/07/10 09:54:41;;;;;;;5.00;1.42;;;;;;;16.48;61.63;101856.16;4972987;28;20174;-49
2022/07/10 09:57:10;;;;;;;5.63;2.03;;;;;;;17.19;59.55;101842.00;4973410;28;20217;-49
2022/07/10 09:59:37;;;;;;;8.40;1.90;;;;;;;17.65;57.84;101842.34;4955680;28;20588;-49
2022/07/10 10:02:07;;;;;;;6.70;1.73;;;;;;;17.18;57.99;101837.50;4973215;28;20186;-47
2022/07/10 10:04:34;;;;;;;8.00;1.65;;;;;;;17.54;59.46;101842.03;4972756;28;20261;-49
2022/07/10 10:07:02;;;;;;;10.18;1.83;;;;;;;17.30;59.04;101834.19;4973468;28;20684;-49
2022/07/10 10:09:48;;;;;;;6.22;1.80;;;;;;;17.09;61.60;101840.69;4972990;28;20756;-48
2022/07/10 10:12:28;;;;;;;7.10;1.80;;;;;;;16.73;62.22;101855.03;4973026;28;20182;-49
2022/07/10 10:14:54;;;;;;;5.82;1.75;;;;;;;16.65;61.13;101860.78;4972519;28;20170;-48
2022/07/10 10:17:22;;;;;;;7.50;1.50;;;;;;;17.25;59.28;101846.19;4972963;28;20281;-47
2022/07/10 10:22:35;;;;;;;4.75;1.48;;;;;;;18.31;58.36;101844.28;4973503;28;20485;-48
2022/07/10 10:25:01;;;;;;;9.32;1.73;;;;;;;18.30;57.66;101847.09;4972461;28;20661;-49
2022/07/10 10:27:27;;;;;;;10.38;1.58;;;;;;;17.80;59.19;101854.25;4973147;28;20182;-48
2022/07/10 10:29:54;;;;;;;5.40;1.58;;;;;;;17.26;59.99;101846.13;4978069;28;20190;-48
2022/07/10 10:32:19;;;;;;;6.15;1.30;;;;;;;17.33;59.67;101844.00;4991752;28;20257;-48
2022/07/10 10:34:55;;;;;;;6.43;1.67;;;;;;;17.41;58.90;101854.47;4991921;28;20205;-49
2022/07/10 10:37:27;;;;;;;5.70;1.35;;;;;;;17.86;57.60;101844.91;4991741;28;20192;-48
2022/07/10 10:39:53;;;;;;;3.97;1.38;;;;;;;17.83;56.57;101836.97;4992397;28;20189;-46
2022/07/10 10:42:38;;;;;;;9.43;1.52;;;;;;;18.03;58.89;101849.47;4991940;28;20257;-47
2022/07/10 10:45:22;;;;;;;6.10;1.40;;;;;;;18.16;58.69;101852.41;4991600;28;20195;-48
2022/07/10 10:48:09;;;;;;;5.60;1.30;;;;;;;18.44;56.63;101840.91;4991536;28;20194;-49
2022/07/10 10:50:48;;;;;;;8.45;1.52;;;;;;;17.92;60.14;101848.19;4991408;28;20193;-47
2022/07/10 10:53:21;;;;;;;4.40;1.42;;;;;;;17.35;58.57;101860.19;4991052;28;20272;-48
2022/07/10 10:56:07;;;;;;;8.50;1.88;;;;;;;17.85;59.04;101841.34;4992036;28;20185;-48
2022/07/10 10:58:41;;;;;;;10.68;2.13;;;;;;;17.78;60.13;101855.28;4991613;28;20223;-49
2022/07/10 11:01:22;;;;;;;8.45;1.48;;;;;;;17.73;60.41;101851.91;4991836;28;20216;-50
2022/07/10 11:04:14;;;;;;;9.35;2.15;;;;;;;17.41;59.90;101858.03;4989646;28;20177;-49
2022/07/10 11:06:51;;;;;;;8.00;1.75;;;;;;;17.11;60.53;101848.72;4991504;28;20660;-49
2022/07/10 11:09:32;;;;;;;5.97;1.60;;;;;;;16.95;60.85;101844.06;4991589;28;20200;-48
2022/07/10 11:12:09;;;;;;;7.35;1.35;;;;;;;17.16;61.40;101866.50;4991687;28;20189;-48
2022/07/10 11:14:39;;;;;;;5.45;1.30;;;;;;;17.73;59.94;101849.19;5006087;28;20241;-47
2022/07/10 11:17:06;;;;;;;6.78;1.50;;;;;;;18.17;57.92;101851.44;4991183;28;20201;-50
2022/07/10 11:19:33;;;;;;;8.57;1.52;;;;;;;18.22;57.31;101849.34;4991444;28;20284;-49
2022/07/10 11:22:08;;;;;;;7.97;1.35;;;;;;;17.73;58.30;101849.19;4991407;28;20176;-50
2022/07/10 11:24:48;;;;;;;7.10;1.60;;;;;;;17.44;59.53;101857.00;4990824;28;20630;-49
2022/07/10 11:27:27;;;;;;;4.70;1.70;;;;;;;17.29;61.16;101848.72;4991050;28;20181;-48
2022/07/10 11:30:01;;;;;;;6.40;1.67;;;;;;;17.29;62.30;101848.72;4991307;28;20184;-49
2022/07/10 11:32:28;;;;;;;6.82;1.27;;;;;;;17.21;61.96;101861.75;4991406;28;20192;-49